Terminal Aerodrome Forecast
Issued by NWS

Home | Current Version | Previous Version | Text Only | Print | Product List | Glossary On
Versions: 1 2 3 4 5 6 7 8 9 10 11 12 13 14 15 16 17 18 19
000
FTUS41 KILN 290500
TAFLCK
TAF
KLCK 290532Z 2906/3006 12004KT P6SM BKN120
     FM291100 16007KT P6SM VCSH SCT050 BKN080
     FM291400 19009KT P6SM BKN050
     FM291700 19010G18KT P6SM SCT050
     FM292000 19012G20KT P6SM VCTS BKN050CB
     FM300000 19007KT P6SM SCT050=

USA.gov is the U.S. government's official web portal to all federal, state and local government web resources and services.